sensor_id;sensor_type;location;lat;lon;timestamp;P1;durP1;ratioP1;P2;durP2;ratioP2
22234;SDS011;11286;45.596;5.284;2023-02-07T00:01:13;10.95;;;7.70;;
22234;SDS011;11286;45.596;5.284;2023-02-07T00:03:40;10.95;;;8.40;;
22234;SDS011;11286;45.596;5.284;2023-02-07T00:06:29;11.77;;;8.20;;
22234;SDS011;11286;45.596;5.284;2023-02-07T00:08:58;11.40;;;8.20;;
22234;SDS011;11286;45.596;5.284;2023-02-07T00:11:24;10.57;;;8.18;;
22234;SDS011;11286;45.596;5.284;2023-02-07T00:13:51;12.55;;;8.45;;
22234;SDS011;11286;45.596;5.284;2023-02-07T00:16:19;11.48;;;8.70;;
22234;SDS011;11286;45.596;5.284;2023-02-07T00:18:45;12.18;;;8.95;;
22234;SDS011;11286;45.596;5.284;2023-02-07T00:21:17;12.75;;;9.50;;
22234;SDS011;11286;45.596;5.284;2023-02-07T00:23:46;11.70;;;9.05;;
22234;SDS011;11286;45.596;5.284;2023-02-07T00:26:13;12.57;;;9.60;;
22234;SDS011;11286;45.596;5.284;2023-02-07T00:28:40;11.65;;;8.73;;
22234;SDS011;11286;45.596;5.284;2023-02-07T00:31:07;14.23;;;9.60;;
22234;SDS011;11286;45.596;5.284;2023-02-07T00:33:38;13.13;;;10.35;;
22234;SDS011;11286;45.596;5.284;2023-02-07T00:36:06;13.38;;;9.63;;
22234;SDS011;11286;45.596;5.284;2023-02-07T00:38:33;11.13;;;9.00;;
22234;SDS011;11286;45.596;5.284;2023-02-07T00:40:59;12.65;;;9.45;;
22234;SDS011;11286;45.596;5.284;2023-02-07T00:43:26;12.07;;;9.43;;
22234;SDS011;11286;45.596;5.284;2023-02-07T00:45:54;13.32;;;9.90;;
22234;SDS011;11286;45.596;5.284;2023-02-07T00:48:20;12.68;;;9.25;;
22234;SDS011;11286;45.596;5.284;2023-02-07T00:50:45;13.35;;;9.48;;
22234;SDS011;11286;45.596;5.284;2023-02-07T00:53:11;12.25;;;9.55;;
22234;SDS011;11286;45.596;5.284;2023-02-07T00:55:37;13.00;;;9.68;;
22234;SDS011;11286;45.596;5.284;2023-02-07T00:58:02;11.45;;;9.05;;
22234;SDS011;11286;45.596;5.284;2023-02-07T01:00:28;14.05;;;9.60;;
22234;SDS011;11286;45.596;5.284;2023-02-07T01:02:57;11.63;;;9.25;;
22234;SDS011;11286;45.596;5.284;2023-02-07T01:05:22;12.77;;;9.18;;
22234;SDS011;11286;45.596;5.284;2023-02-07T01:07:48;11.13;;;9.10;;
22234;SDS011;11286;45.596;5.284;2023-02-07T01:10:14;12.40;;;9.93;;
22234;SDS011;11286;45.596;5.284;2023-02-07T01:12:39;13.38;;;10.05;;
22234;SDS011;11286;45.596;5.284;2023-02-07T01:15:05;12.95;;;9.43;;
22234;SDS011;11286;45.596;5.284;2023-02-07T01:17:32;11.57;;;8.93;;
22234;SDS011;11286;45.596;5.284;2023-02-07T01:19:58;12.27;;;9.48;;
22234;SDS011;11286;45.596;5.284;2023-02-07T01:22:24;13.32;;;9.65;;
22234;SDS011;11286;45.596;5.284;2023-02-07T01:24:53;12.30;;;9.48;;
22234;SDS011;11286;45.596;5.284;2023-02-07T01:27:23;13.88;;;10.30;;
22234;SDS011;11286;45.596;5.284;2023-02-07T01:29:49;14.38;;;10.18;;
22234;SDS011;11286;45.596;5.284;2023-02-07T01:32:15;14.38;;;9.75;;
22234;SDS011;11286;45.596;5.284;2023-02-07T01:34:40;11.68;;;8.95;;
22234;SDS011;11286;45.596;5.284;2023-02-07T01:37:06;13.75;;;9.77;;
22234;SDS011;11286;45.596;5.284;2023-02-07T01:39:32;12.93;;;9.00;;
22234;SDS011;11286;45.596;5.284;2023-02-07T01:41:57;12.93;;;9.38;;
22234;SDS011;11286;45.596;5.284;2023-02-07T01:46:49;14.00;;;10.07;;
22234;SDS011;11286;45.596;5.284;2023-02-07T01:49:17;14.32;;;9.52;;
22234;SDS011;11286;45.596;5.284;2023-02-07T01:51:47;12.82;;;10.18;;
22234;SDS011;11286;45.596;5.284;2023-02-07T01:54:17;12.43;;;9.55;;
22234;SDS011;11286;45.596;5.284;2023-02-07T01:56:47;14.27;;;10.35;;
22234;SDS011;11286;45.596;5.284;2023-02-07T01:59:18;13.80;;;9.73;;
22234;SDS011;11286;45.596;5.284;2023-02-07T02:01:45;15.35;;;10.15;;
22234;SDS011;11286;45.596;5.284;2023-02-07T02:04:11;13.80;;;10.27;;
22234;SDS011;11286;45.596;5.284;2023-02-07T02:06:37;14.13;;;10.18;;
22234;SDS011;11286;45.596;5.284;2023-02-07T02:09:08;15.23;;;10.52;;
22234;SDS011;11286;45.596;5.284;2023-02-07T02:16:51;14.15;;;10.07;;
22234;SDS011;11286;45.596;5.284;2023-02-07T02:25:12;13.45;;;10.05;;
22234;SDS011;11286;45.596;5.284;2023-02-07T02:44:27;15.20;;;10.52;;
22234;SDS011;11286;45.596;5.284;2023-02-07T02:47:04;13.77;;;9.50;;
22234;SDS011;11286;45.596;5.284;2023-02-07T02:49:32;15.20;;;10.88;;
22234;SDS011;11286;45.596;5.284;2023-02-07T02:51:58;14.52;;;9.68;;
22234;SDS011;11286;45.596;5.284;2023-02-07T02:54:28;12.48;;;9.75;;
22234;SDS011;11286;45.596;5.284;2023-02-07T02:57:05;13.70;;;10.38;;
22234;SDS011;11286;45.596;5.284;2023-02-07T03:00:01;13.73;;;9.98;;
22234;SDS011;11286;45.596;5.284;2023-02-07T03:02:56;12.05;;;9.43;;
22234;SDS011;11286;45.596;5.284;2023-02-07T03:11:19;12.15;;;9.35;;
22234;SDS011;11286;45.596;5.284;2023-02-07T03:16:40;12.70;;;9.63;;
22234;SDS011;11286;45.596;5.284;2023-02-07T03:19:21;13.70;;;10.05;;
22234;SDS011;11286;45.596;5.284;2023-02-07T03:21:59;12.38;;;9.38;;
22234;SDS011;11286;45.596;5.284;2023-02-07T03:24:34;12.93;;;10.02;;
22234;SDS011;11286;45.596;5.284;2023-02-07T03:27:07;12.38;;;9.10;;
22234;SDS011;11286;45.596;5.284;2023-02-07T03:29:36;13.80;;;9.73;;
22234;SDS011;11286;45.596;5.284;2023-02-07T03:32:04;13.52;;;9.95;;
22234;SDS011;11286;45.596;5.284;2023-02-07T03:34:38;14.32;;;10.02;;
22234;SDS011;11286;45.596;5.284;2023-02-07T03:37:24;12.70;;;9.10;;
22234;SDS011;11286;45.596;5.284;2023-02-07T03:39:53;11.73;;;9.65;;
22234;SDS011;11286;45.596;5.284;2023-02-07T03:42:26;14.32;;;9.38;;
22234;SDS011;11286;45.596;5.284;2023-02-07T03:45:17;14.15;;;10.00;;
22234;SDS011;11286;45.596;5.284;2023-02-07T03:47:44;11.05;;;9.27;;
22234;SDS011;11286;45.596;5.284;2023-02-07T03:50:09;11.52;;;9.57;;
22234;SDS011;11286;45.596;5.284;2023-02-07T03:52:36;14.07;;;9.93;;
22234;SDS011;11286;45.596;5.284;2023-02-07T03:55:02;13.32;;;10.15;;
22234;SDS011;11286;45.596;5.284;2023-02-07T03:57:28;12.70;;;9.70;;
22234;SDS011;11286;45.596;5.284;2023-02-07T03:59:54;14.18;;;10.10;;
22234;SDS011;11286;45.596;5.284;2023-02-07T04:02:19;13.48;;;10.45;;
22234;SDS011;11286;45.596;5.284;2023-02-07T04:04:45;13.77;;;10.07;;
22234;SDS011;11286;45.596;5.284;2023-02-07T04:07:11;12.20;;;9.38;;
22234;SDS011;11286;45.596;5.284;2023-02-07T04:09:36;12.45;;;9.88;;
22234;SDS011;11286;45.596;5.284;2023-02-07T04:12:02;13.48;;;9.85;;
22234;SDS011;11286;45.596;5.284;2023-02-07T04:14:28;12.18;;;9.68;;
22234;SDS011;11286;45.596;5.284;2023-02-07T04:16:54;13.52;;;9.85;;
22234;SDS011;11286;45.596;5.284;2023-02-07T04:19:20;13.73;;;10.30;;
22234;SDS011;11286;45.596;5.284;2023-02-07T04:21:45;13.23;;;10.40;;
22234;SDS011;11286;45.596;5.284;2023-02-07T04:24:11;15.18;;;10.70;;
22234;SDS011;11286;45.596;5.284;2023-02-07T04:26:37;14.57;;;10.52;;
22234;SDS011;11286;45.596;5.284;2023-02-07T04:29:02;13.38;;;10.13;;
22234;SDS011;11286;45.596;5.284;2023-02-07T04:31:28;15.95;;;10.80;;
22234;SDS011;11286;45.596;5.284;2023-02-07T04:33:54;14.55;;;10.30;;
22234;SDS011;11286;45.596;5.284;2023-02-07T04:36:19;14.07;;;11.02;;
22234;SDS011;11286;45.596;5.284;2023-02-07T04:38:46;13.40;;;10.35;;
22234;SDS011;11286;45.596;5.284;2023-02-07T04:41:12;13.27;;;10.15;;
22234;SDS011;11286;45.596;5.284;2023-02-07T04:43:38;15.85;;;10.60;;
22234;SDS011;11286;45.596;5.284;2023-02-07T04:46:04;14.52;;;10.55;;
22234;SDS011;11286;45.596;5.284;2023-02-07T04:48:30;14.45;;;10.75;;
22234;SDS011;11286;45.596;5.284;2023-02-07T04:50:57;14.10;;;10.23;;
22234;SDS011;11286;45.596;5.284;2023-02-07T04:53:23;13.32;;;10.27;;
22234;SDS011;11286;45.596;5.284;2023-02-07T04:55:49;14.93;;;10.93;;
22234;SDS011;11286;45.596;5.284;2023-02-07T04:58:16;14.25;;;9.75;;
22234;SDS011;11286;45.596;5.284;2023-02-07T05:00:43;13.32;;;10.45;;
22234;SDS011;11286;45.596;5.284;2023-02-07T05:03:08;15.38;;;10.18;;
22234;SDS011;11286;45.596;5.284;2023-02-07T05:05:37;14.43;;;9.93;;
22234;SDS011;11286;45.596;5.284;2023-02-07T05:08:06;12.88;;;10.25;;
22234;SDS011;11286;45.596;5.284;2023-02-07T05:10:32;14.77;;;10.30;;
22234;SDS011;11286;45.596;5.284;2023-02-07T05:12:59;13.30;;;10.20;;
22234;SDS011;11286;45.596;5.284;2023-02-07T05:15:25;14.35;;;10.65;;
22234;SDS011;11286;45.596;5.284;2023-02-07T05:17:51;14.13;;;9.85;;
22234;SDS011;11286;45.596;5.284;2023-02-07T05:20:17;13.93;;;10.82;;
22234;SDS011;11286;45.596;5.284;2023-02-07T05:22:43;13.55;;;10.55;;
22234;SDS011;11286;45.596;5.284;2023-02-07T05:25:09;14.13;;;10.38;;
22234;SDS011;11286;45.596;5.284;2023-02-07T05:27:35;14.57;;;11.02;;
22234;SDS011;11286;45.596;5.284;2023-02-07T05:30:01;15.60;;;11.07;;
22234;SDS011;11286;45.596;5.284;2023-02-07T05:32:27;13.82;;;10.73;;
22234;SDS011;11286;45.596;5.284;2023-02-07T05:35:11;13.45;;;10.35;;
22234;SDS011;11286;45.596;5.284;2023-02-07T05:37:37;14.82;;;11.85;;
22234;SDS011;11286;45.596;5.284;2023-02-07T05:40:03;18.73;;;13.43;;
22234;SDS011;11286;45.596;5.284;2023-02-07T05:42:29;16.35;;;12.70;;
22234;SDS011;11286;45.596;5.284;2023-02-07T05:44:55;14.95;;;12.15;;
22234;SDS011;11286;45.596;5.284;2023-02-07T05:47:20;15.75;;;11.75;;
22234;SDS011;11286;45.596;5.284;2023-02-07T05:49:46;15.63;;;11.43;;
22234;SDS011;11286;45.596;5.284;2023-02-07T05:52:11;15.00;;;12.10;;
22234;SDS011;11286;45.596;5.284;2023-02-07T05:54:37;14.27;;;11.70;;
22234;SDS011;11286;45.596;5.284;2023-02-07T05:57:03;17.02;;;12.40;;
22234;SDS011;11286;45.596;5.284;2023-02-07T05:59:28;15.88;;;12.20;;
22234;SDS011;11286;45.596;5.284;2023-02-07T06:01:54;16.70;;;12.57;;
22234;SDS011;11286;45.596;5.284;2023-02-07T06:04:20;25.40;;;19.20;;
22234;SDS011;11286;45.596;5.284;2023-02-07T06:06:45;21.15;;;15.40;;
22234;SDS011;11286;45.596;5.284;2023-02-07T06:09:11;17.05;;;13.80;;
22234;SDS011;11286;45.596;5.284;2023-02-07T06:11:36;16.10;;;12.23;;
22234;SDS011;11286;45.596;5.284;2023-02-07T06:14:02;15.32;;;12.30;;
22234;SDS011;11286;45.596;5.284;2023-02-07T06:16:28;18.55;;;13.35;;
22234;SDS011;11286;45.596;5.284;2023-02-07T06:18:53;16.55;;;13.13;;
22234;SDS011;11286;45.596;5.284;2023-02-07T06:21:19;16.20;;;12.35;;
22234;SDS011;11286;45.596;5.284;2023-02-07T06:23:45;16.48;;;12.90;;
22234;SDS011;11286;45.596;5.284;2023-02-07T06:26:12;19.13;;;12.73;;
22234;SDS011;11286;45.596;5.284;2023-02-07T06:28:38;16.60;;;12.50;;
22234;SDS011;11286;45.596;5.284;2023-02-07T06:31:03;19.83;;;16.40;;
22234;SDS011;11286;45.596;5.284;2023-02-07T06:33:29;19.45;;;14.57;;
22234;SDS011;11286;45.596;5.284;2023-02-07T06:35:55;19.60;;;13.65;;
22234;SDS011;11286;45.596;5.284;2023-02-07T06:38:20;21.90;;;15.63;;
22234;SDS011;11286;45.596;5.284;2023-02-07T06:40:46;22.90;;;16.30;;
22234;SDS011;11286;45.596;5.284;2023-02-07T06:43:13;20.38;;;15.27;;
22234;SDS011;11286;45.596;5.284;2023-02-07T06:45:38;19.33;;;14.15;;
22234;SDS011;11286;45.596;5.284;2023-02-07T06:48:04;17.13;;;12.98;;
22234;SDS011;11286;45.596;5.284;2023-02-07T06:50:30;16.38;;;12.68;;
22234;SDS011;11286;45.596;5.284;2023-02-07T06:52:56;17.17;;;13.10;;
22234;SDS011;11286;45.596;5.284;2023-02-07T06:55:36;18.02;;;12.88;;
22234;SDS011;11286;45.596;5.284;2023-02-07T06:58:03;17.92;;;14.10;;
22234;SDS011;11286;45.596;5.284;2023-02-07T07:00:30;18.30;;;13.43;;
22234;SDS011;11286;45.596;5.284;2023-02-07T07:02:57;17.98;;;13.70;;
22234;SDS011;11286;45.596;5.284;2023-02-07T07:05:24;18.08;;;13.93;;
22234;SDS011;11286;45.596;5.284;2023-02-07T07:07:54;24.83;;;20.60;;
22234;SDS011;11286;45.596;5.284;2023-02-07T07:10:20;18.33;;;14.77;;
22234;SDS011;11286;45.596;5.284;2023-02-07T07:12:46;19.48;;;15.13;;
22234;SDS011;11286;45.596;5.284;2023-02-07T07:15:12;20.80;;;16.13;;
22234;SDS011;11286;45.596;5.284;2023-02-07T07:17:38;21.50;;;16.92;;
22234;SDS011;11286;45.596;5.284;2023-02-07T07:20:04;22.55;;;15.85;;
22234;SDS011;11286;45.596;5.284;2023-02-07T07:22:31;20.55;;;15.93;;
22234;SDS011;11286;45.596;5.284;2023-02-07T07:24:57;21.70;;;16.23;;
22234;SDS011;11286;45.596;5.284;2023-02-07T07:27:23;18.15;;;14.63;;
22234;SDS011;11286;45.596;5.284;2023-02-07T07:29:49;22.25;;;17.80;;
22234;SDS011;11286;45.596;5.284;2023-02-07T07:32:14;33.00;;;22.83;;
22234;SDS011;11286;45.596;5.284;2023-02-07T07:34:40;22.77;;;16.77;;
22234;SDS011;11286;45.596;5.284;2023-02-07T07:37:05;22.67;;;16.70;;
22234;SDS011;11286;45.596;5.284;2023-02-07T07:39:31;26.08;;;19.02;;
22234;SDS011;11286;45.596;5.284;2023-02-07T07:41:57;24.15;;;16.75;;
22234;SDS011;11286;45.596;5.284;2023-02-07T07:44:23;21.63;;;15.98;;
22234;SDS011;11286;45.596;5.284;2023-02-07T07:46:49;20.27;;;15.48;;
22234;SDS011;11286;45.596;5.284;2023-02-07T07:49:14;19.80;;;15.10;;
22234;SDS011;11286;45.596;5.284;2023-02-07T07:51:40;23.00;;;17.63;;
22234;SDS011;11286;45.596;5.284;2023-02-07T07:54:06;18.42;;;14.23;;
22234;SDS011;11286;45.596;5.284;2023-02-07T07:56:31;18.83;;;14.20;;
22234;SDS011;11286;45.596;5.284;2023-02-07T07:58:59;20.75;;;15.13;;
22234;SDS011;11286;45.596;5.284;2023-02-07T08:01:25;18.38;;;14.63;;
22234;SDS011;11286;45.596;5.284;2023-02-07T08:03:51;20.02;;;14.07;;
22234;SDS011;11286;45.596;5.284;2023-02-07T08:06:17;18.73;;;13.82;;
22234;SDS011;11286;45.596;5.284;2023-02-07T08:08:42;17.15;;;13.40;;
22234;SDS011;11286;45.596;5.284;2023-02-07T08:11:08;18.85;;;12.40;;
22234;SDS011;11286;45.596;5.284;2023-02-07T08:13:35;21.02;;;13.95;;
22234;SDS011;11286;45.596;5.284;2023-02-07T08:16:02;18.33;;;14.18;;
22234;SDS011;11286;45.596;5.284;2023-02-07T08:18:29;17.45;;;12.82;;
22234;SDS011;11286;45.596;5.284;2023-02-07T08:20:55;17.20;;;13.15;;
22234;SDS011;11286;45.596;5.284;2023-02-07T08:23:21;17.48;;;12.80;;
22234;SDS011;11286;45.596;5.284;2023-02-07T08:25:47;15.15;;;12.30;;
22234;SDS011;11286;45.596;5.284;2023-02-07T08:28:14;16.25;;;11.85;;
22234;SDS011;11286;45.596;5.284;2023-02-07T08:30:40;14.77;;;11.65;;
22234;SDS011;11286;45.596;5.284;2023-02-07T08:33:06;15.80;;;12.00;;
22234;SDS011;11286;45.596;5.284;2023-02-07T08:35:32;13.93;;;11.77;;
22234;SDS011;11286;45.596;5.284;2023-02-07T08:37:58;15.13;;;10.63;;
22234;SDS011;11286;45.596;5.284;2023-02-07T08:40:24;16.52;;;11.10;;
22234;SDS011;11286;45.596;5.284;2023-02-07T08:42:50;13.00;;;11.45;;
22234;SDS011;11286;45.596;5.284;2023-02-07T08:45:16;14.85;;;12.35;;
22234;SDS011;11286;45.596;5.284;2023-02-07T08:47:43;13.18;;;11.35;;
22234;SDS011;11286;45.596;5.284;2023-02-07T08:50:10;18.73;;;12.75;;
22234;SDS011;11286;45.596;5.284;2023-02-07T08:52:36;16.27;;;12.15;;
22234;SDS011;11286;45.596;5.284;2023-02-07T08:55:02;15.43;;;12.57;;
22234;SDS011;11286;45.596;5.284;2023-02-07T08:57:28;15.07;;;12.13;;
22234;SDS011;11286;45.596;5.284;2023-02-07T08:59:54;14.07;;;11.48;;
22234;SDS011;11286;45.596;5.284;2023-02-07T09:02:20;15.82;;;11.82;;
22234;SDS011;11286;45.596;5.284;2023-02-07T09:04:46;14.38;;;12.13;;
22234;SDS011;11286;45.596;5.284;2023-02-07T09:07:11;16.05;;;13.80;;
22234;SDS011;11286;45.596;5.284;2023-02-07T09:09:38;13.50;;;12.02;;
22234;SDS011;11286;45.596;5.284;2023-02-07T09:12:04;13.30;;;11.93;;
22234;SDS011;11286;45.596;5.284;2023-02-07T09:14:30;16.27;;;12.63;;
22234;SDS011;11286;45.596;5.284;2023-02-07T09:16:56;18.23;;;13.07;;
22234;SDS011;11286;45.596;5.284;2023-02-07T09:19:22;15.48;;;12.55;;
22234;SDS011;11286;45.596;5.284;2023-02-07T09:21:48;12.93;;;11.63;;
22234;SDS011;11286;45.596;5.284;2023-02-07T09:24:13;16.42;;;12.45;;
22234;SDS011;11286;45.596;5.284;2023-02-07T09:26:39;13.07;;;11.77;;
22234;SDS011;11286;45.596;5.284;2023-02-07T09:29:05;13.05;;;11.65;;
22234;SDS011;11286;45.596;5.284;2023-02-07T09:31:32;14.10;;;11.90;;
22234;SDS011;11286;45.596;5.284;2023-02-07T09:33:58;13.65;;;12.32;;
22234;SDS011;11286;45.596;5.284;2023-02-07T09:36:26;19.13;;;13.27;;
22234;SDS011;11286;45.596;5.284;2023-02-07T09:38:53;12.60;;;11.35;;
22234;SDS011;11286;45.596;5.284;2023-02-07T09:47:28;13.15;;;11.85;;
22234;SDS011;11286;45.596;5.284;2023-02-07T09:50:00;13.93;;;12.43;;
22234;SDS011;11286;45.596;5.284;2023-02-07T09:52:36;13.75;;;12.35;;
22234;SDS011;11286;45.596;5.284;2023-02-07T09:55:08;14.23;;;12.77;;
22234;SDS011;11286;45.596;5.284;2023-02-07T09:57:59;14.50;;;12.52;;
22234;SDS011;11286;45.596;5.284;2023-02-07T10:00:34;20.60;;;13.30;;
22234;SDS011;11286;45.596;5.284;2023-02-07T10:03:14;14.38;;;12.98;;
22234;SDS011;11286;45.596;5.284;2023-02-07T10:05:44;14.75;;;13.27;;
22234;SDS011;11286;45.596;5.284;2023-02-07T10:08:16;21.90;;;13.50;;
22234;SDS011;11286;45.596;5.284;2023-02-07T10:10:45;17.42;;;12.82;;
22234;SDS011;11286;45.596;5.284;2023-02-07T10:16:21;17.02;;;12.93;;
22234;SDS011;11286;45.596;5.284;2023-02-07T10:27:53;15.65;;;13.10;;
22234;SDS011;11286;45.596;5.284;2023-02-07T10:30:38;15.00;;;13.23;;
22234;SDS011;11286;45.596;5.284;2023-02-07T10:33:11;15.10;;;13.32;;
22234;SDS011;11286;45.596;5.284;2023-02-07T10:35:39;16.45;;;14.27;;
22234;SDS011;11286;45.596;5.284;2023-02-07T10:38:10;15.38;;;13.80;;
22234;SDS011;11286;45.596;5.284;2023-02-07T10:40:51;18.80;;;14.10;;
22234;SDS011;11286;45.596;5.284;2023-02-07T10:43:30;15.80;;;13.32;;
22234;SDS011;11286;45.596;5.284;2023-02-07T10:46:01;14.88;;;12.90;;
22234;SDS011;11286;45.596;5.284;2023-02-07T10:48:33;13.82;;;12.43;;
22234;SDS011;11286;45.596;5.284;2023-02-07T10:51:05;15.10;;;13.50;;
22234;SDS011;11286;45.596;5.284;2023-02-07T10:53:46;15.05;;;13.50;;
22234;SDS011;11286;45.596;5.284;2023-02-07T10:56:32;14.57;;;12.75;;
22234;SDS011;11286;45.596;5.284;2023-02-07T10:59:01;13.52;;;12.18;;
22234;SDS011;11286;45.596;5.284;2023-02-07T11:01:28;13.25;;;11.82;;
22234;SDS011;11286;45.596;5.284;2023-02-07T11:03:56;13.38;;;11.77;;
22234;SDS011;11286;45.596;5.284;2023-02-07T11:06:32;13.27;;;12.07;;
22234;SDS011;11286;45.596;5.284;2023-02-07T11:11:53;11.98;;;10.75;;
22234;SDS011;11286;45.596;5.284;2023-02-07T11:14:23;12.10;;;11.07;;
22234;SDS011;11286;45.596;5.284;2023-02-07T11:16:53;12.55;;;11.45;;
22234;SDS011;11286;45.596;5.284;2023-02-07T11:19:24;11.73;;;10.73;;
22234;SDS011;11286;45.596;5.284;2023-02-07T11:21:53;11.75;;;10.75;;
22234;SDS011;11286;45.596;5.284;2023-02-07T11:24:41;11.80;;;10.80;;
22234;SDS011;11286;45.596;5.284;2023-02-07T11:27:15;11.65;;;10.60;;
22234;SDS011;11286;45.596;5.284;2023-02-07T11:29:55;11.80;;;10.80;;
22234;SDS011;11286;45.596;5.284;2023-02-07T11:32:24;12.13;;;10.93;;
22234;SDS011;11286;45.596;5.284;2023-02-07T11:37:24;10.88;;;9.88;;
22234;SDS011;11286;45.596;5.284;2023-02-07T11:40:15;11.05;;;10.10;;
22234;SDS011;11286;45.596;5.284;2023-02-07T11:43:05;11.23;;;10.13;;
22234;SDS011;11286;45.596;5.284;2023-02-07T11:45:35;11.18;;;10.18;;
22234;SDS011;11286;45.596;5.284;2023-02-07T11:48:06;10.57;;;9.68;;
22234;SDS011;11286;45.596;5.284;2023-02-07T11:50:42;10.50;;;9.55;;
22234;SDS011;11286;45.596;5.284;2023-02-07T11:53:23;11.20;;;10.10;;
22234;SDS011;11286;45.596;5.284;2023-02-07T11:55:51;10.35;;;9.45;;
22234;SDS011;11286;45.596;5.284;2023-02-07T11:58:37;10.38;;;9.40;;
22234;SDS011;11286;45.596;5.284;2023-02-07T12:01:06;10.23;;;9.32;;
22234;SDS011;11286;45.596;5.284;2023-02-07T12:03:33;11.00;;;10.00;;
22234;SDS011;11286;45.596;5.284;2023-02-07T12:06:18;11.00;;;9.90;;
22234;SDS011;11286;45.596;5.284;2023-02-07T12:08:47;12.20;;;11.13;;
22234;SDS011;11286;45.596;5.284;2023-02-07T12:11:26;12.68;;;11.57;;
22234;SDS011;11286;45.596;5.284;2023-02-07T12:13:58;12.95;;;11.85;;
22234;SDS011;11286;45.596;5.284;2023-02-07T12:16:37;10.30;;;9.40;;
22234;SDS011;11286;45.596;5.284;2023-02-07T12:20:16;10.38;;;9.30;;
22234;SDS011;11286;45.596;5.284;2023-02-07T12:22:21;11.95;;;10.73;;
22234;SDS011;11286;45.596;5.284;2023-02-07T12:25:17;11.77;;;10.68;;
22234;SDS011;11286;45.596;5.284;2023-02-07T12:27:46;10.60;;;9.70;;
22234;SDS011;11286;45.596;5.284;2023-02-07T12:30:27;10.98;;;9.98;;
22234;SDS011;11286;45.596;5.284;2023-02-07T12:35:59;11.65;;;10.65;;
22234;SDS011;11286;45.596;5.284;2023-02-07T12:43:52;11.35;;;10.30;;
22234;SDS011;11286;45.596;5.284;2023-02-07T12:54:26;17.67;;;10.55;;
22234;SDS011;11286;45.596;5.284;2023-02-07T13:00:09;11.73;;;10.70;;
22234;SDS011;11286;45.596;5.284;2023-02-07T13:08:48;13.10;;;11.90;;
22234;SDS011;11286;45.596;5.284;2023-02-07T13:11:32;13.57;;;12.20;;
22234;SDS011;11286;45.596;5.284;2023-02-07T13:19:56;13.85;;;12.55;;
22234;SDS011;11286;45.596;5.284;2023-02-07T13:25:15;13.68;;;12.18;;
22234;SDS011;11286;45.596;5.284;2023-02-07T13:27:46;15.30;;;11.73;;
22234;SDS011;11286;45.596;5.284;2023-02-07T13:30:16;12.95;;;11.75;;
22234;SDS011;11286;45.596;5.284;2023-02-07T13:32:42;11.50;;;10.50;;
22234;SDS011;11286;45.596;5.284;2023-02-07T13:35:30;11.95;;;10.75;;
22234;SDS011;11286;45.596;5.284;2023-02-07T13:37:58;12.15;;;10.73;;
22234;SDS011;11286;45.596;5.284;2023-02-07T13:48:45;13.88;;;12.57;;
22234;SDS011;11286;45.596;5.284;2023-02-07T13:51:47;13.05;;;11.85;;
22234;SDS011;11286;45.596;5.284;2023-02-07T13:54:21;15.07;;;13.00;;
22234;SDS011;11286;45.596;5.284;2023-02-07T13:57:00;13.15;;;11.85;;
22234;SDS011;11286;45.596;5.284;2023-02-07T14:00:06;13.15;;;11.68;;
22234;SDS011;11286;45.596;5.284;2023-02-07T14:02:39;12.02;;;10.85;;
22234;SDS011;11286;45.596;5.284;2023-02-07T14:05:07;12.15;;;10.65;;
22234;SDS011;11286;45.596;5.284;2023-02-07T14:07:35;11.57;;;10.45;;
22234;SDS011;11286;45.596;5.284;2023-02-07T14:10:03;12.10;;;10.90;;
22234;SDS011;11286;45.596;5.284;2023-02-07T14:12:31;18.20;;;16.60;;
22234;SDS011;11286;45.596;5.284;2023-02-07T14:17:59;12.88;;;11.57;;
22234;SDS011;11286;45.596;5.284;2023-02-07T14:33:13;10.77;;;9.73;;
22234;SDS011;11286;45.596;5.284;2023-02-07T14:36:16;10.68;;;9.57;;
22234;SDS011;11286;45.596;5.284;2023-02-07T14:38:58;11.65;;;10.55;;
22234;SDS011;11286;45.596;5.284;2023-02-07T14:41:34;13.57;;;12.18;;
22234;SDS011;11286;45.596;5.284;2023-02-07T14:44:02;11.15;;;10.05;;
22234;SDS011;11286;45.596;5.284;2023-02-07T14:46:31;10.63;;;9.52;;
22234;SDS011;11286;45.596;5.284;2023-02-07T14:52:10;10.52;;;9.43;;
22234;SDS011;11286;45.596;5.284;2023-02-07T14:54:57;10.38;;;9.15;;
22234;SDS011;11286;45.596;5.284;2023-02-07T15:05:21;10.20;;;9.05;;
22234;SDS011;11286;45.596;5.284;2023-02-07T15:10:27;9.90;;;8.63;;
22234;SDS011;11286;45.596;5.284;2023-02-07T15:12:54;9.30;;;8.30;;
22234;SDS011;11286;45.596;5.284;2023-02-07T15:15:22;9.40;;;8.10;;
22234;SDS011;11286;45.596;5.284;2023-02-07T15:18:08;8.80;;;7.90;;
22234;SDS011;11286;45.596;5.284;2023-02-07T15:20:37;8.38;;;7.53;;
22234;SDS011;11286;45.596;5.284;2023-02-07T15:23:03;9.90;;;8.27;;
22234;SDS011;11286;45.596;5.284;2023-02-07T15:25:33;10.45;;;7.95;;
22234;SDS011;11286;45.596;5.284;2023-02-07T15:30:27;10.25;;;8.07;;
22234;SDS011;11286;45.596;5.284;2023-02-07T15:32:54;8.55;;;7.70;;
22234;SDS011;11286;45.596;5.284;2023-02-07T15:35:26;10.63;;;8.60;;
22234;SDS011;11286;45.596;5.284;2023-02-07T15:38:42;10.45;;;8.10;;
22234;SDS011;11286;45.596;5.284;2023-02-07T15:40:50;8.68;;;7.78;;
22234;SDS011;11286;45.596;5.284;2023-02-07T15:43:28;10.15;;;7.80;;
22234;SDS011;11286;45.596;5.284;2023-02-07T15:46:04;11.18;;;8.40;;
22234;SDS011;11286;45.596;5.284;2023-02-07T15:48:43;9.23;;;8.27;;
22234;SDS011;11286;45.596;5.284;2023-02-07T15:51:10;8.25;;;7.45;;
22234;SDS011;11286;45.596;5.284;2023-02-07T15:53:37;8.57;;;7.75;;
22234;SDS011;11286;45.596;5.284;2023-02-07T15:56:04;9.90;;;8.10;;
22234;SDS011;11286;45.596;5.284;2023-02-07T15:58:32;9.43;;;8.05;;
22234;SDS011;11286;45.596;5.284;2023-02-07T16:01:00;9.50;;;7.85;;
22234;SDS011;11286;45.596;5.284;2023-02-07T16:03:34;8.80;;;7.63;;
22234;SDS011;11286;45.596;5.284;2023-02-07T16:06:18;9.07;;;7.95;;
22234;SDS011;11286;45.596;5.284;2023-02-07T16:08:47;9.57;;;8.18;;
22234;SDS011;11286;45.596;5.284;2023-02-07T16:11:19;10.77;;;8.55;;
22234;SDS011;11286;45.596;5.284;2023-02-07T16:13:53;9.27;;;8.00;;
22234;SDS011;11286;45.596;5.284;2023-02-07T16:16:21;8.82;;;7.70;;
22234;SDS011;11286;45.596;5.284;2023-02-07T16:18:51;10.93;;;7.93;;
22234;SDS011;11286;45.596;5.284;2023-02-07T16:21:58;9.82;;;7.97;;
22234;SDS011;11286;45.596;5.284;2023-02-07T16:24:32;9.88;;;8.57;;
22234;SDS011;11286;45.596;5.284;2023-02-07T16:27:00;10.32;;;8.48;;
22234;SDS011;11286;45.596;5.284;2023-02-07T16:29:26;9.23;;;8.00;;
22234;SDS011;11286;45.596;5.284;2023-02-07T16:31:52;10.02;;;8.50;;
22234;SDS011;11286;45.596;5.284;2023-02-07T16:34:19;11.10;;;8.82;;
22234;SDS011;11286;45.596;5.284;2023-02-07T16:36:47;11.65;;;8.75;;
22234;SDS011;11286;45.596;5.284;2023-02-07T16:39:14;11.25;;;8.85;;
22234;SDS011;11286;45.596;5.284;2023-02-07T16:41:42;9.75;;;8.75;;
22234;SDS011;11286;45.596;5.284;2023-02-07T16:44:18;11.65;;;9.20;;
22234;SDS011;11286;45.596;5.284;2023-02-07T16:46:50;16.65;;;11.20;;
22234;SDS011;11286;45.596;5.284;2023-02-07T16:49:17;15.43;;;10.52;;
22234;SDS011;11286;45.596;5.284;2023-02-07T16:51:45;12.10;;;9.55;;
22234;SDS011;11286;45.596;5.284;2023-02-07T16:54:11;11.27;;;9.15;;
22234;SDS011;11286;45.596;5.284;2023-02-07T16:56:37;12.98;;;9.50;;
22234;SDS011;11286;45.596;5.284;2023-02-07T16:59:04;11.95;;;9.18;;